sensor_id;sensor_type;location;lat;lon;timestamp;P1;durP1;ratioP1;P2;durP2;ratioP2
57848;SDS011;68645;44.762;21.516;2023-03-31T00:01:47;24.38;;;14.07;;
57848;SDS011;68645;44.762;21.516;2023-03-31T00:04:13;23.67;;;14.13;;
57848;SDS011;68645;44.762;21.516;2023-03-31T00:06:40;20.20;;;13.98;;
57848;SDS011;68645;44.762;21.516;2023-03-31T00:09:08;20.38;;;13.65;;
57848;SDS011;68645;44.762;21.516;2023-03-31T00:11:34;22.70;;;14.60;;
57848;SDS011;68645;44.762;21.516;2023-03-31T00:14:01;27.17;;;15.38;;
57848;SDS011;68645;44.762;21.516;2023-03-31T00:16:27;16.50;;;11.05;;
57848;SDS011;68645;44.762;21.516;2023-03-31T00:18:53;18.52;;;12.00;;
57848;SDS011;68645;44.762;21.516;2023-03-31T00:21:21;15.50;;;10.10;;
57848;SDS011;68645;44.762;21.516;2023-03-31T00:26:20;24.30;;;13.68;;
57848;SDS011;68645;44.762;21.516;2023-03-31T00:28:49;18.90;;;12.20;;
57848;SDS011;68645;44.762;21.516;2023-03-31T00:31:15;25.52;;;15.70;;
57848;SDS011;68645;44.762;21.516;2023-03-31T00:33:41;33.70;;;21.60;;
57848;SDS011;68645;44.762;21.516;2023-03-31T00:36:08;34.30;;;20.10;;
57848;SDS011;68645;44.762;21.516;2023-03-31T00:38:34;29.10;;;18.50;;
57848;SDS011;68645;44.762;21.516;2023-03-31T00:41:00;32.80;;;19.75;;
57848;SDS011;68645;44.762;21.516;2023-03-31T00:43:31;33.92;;;22.63;;
57848;SDS011;68645;44.762;21.516;2023-03-31T00:46:06;32.70;;;18.67;;
57848;SDS011;68645;44.762;21.516;2023-03-31T00:48:39;41.15;;;22.30;;
57848;SDS011;68645;44.762;21.516;2023-03-31T00:51:07;56.45;;;29.25;;
57848;SDS011;68645;44.762;21.516;2023-03-31T00:53:33;51.05;;;28.23;;
57848;SDS011;68645;44.762;21.516;2023-03-31T00:56:04;35.92;;;23.50;;
57848;SDS011;68645;44.762;21.516;2023-03-31T00:58:31;24.90;;;15.70;;
57848;SDS011;68645;44.762;21.516;2023-03-31T01:00:58;31.27;;;18.58;;
57848;SDS011;68645;44.762;21.516;2023-03-31T01:03:26;32.05;;;20.27;;
57848;SDS011;68645;44.762;21.516;2023-03-31T01:05:58;30.88;;;18.95;;
57848;SDS011;68645;44.762;21.516;2023-03-31T01:10:53;26.05;;;16.98;;
57848;SDS011;68645;44.762;21.516;2023-03-31T01:13:20;33.17;;;18.92;;
57848;SDS011;68645;44.762;21.516;2023-03-31T01:15:46;41.58;;;27.20;;
57848;SDS011;68645;44.762;21.516;2023-03-31T01:18:12;34.25;;;23.65;;
57848;SDS011;68645;44.762;21.516;2023-03-31T01:26:37;30.50;;;21.25;;
57848;SDS011;68645;44.762;21.516;2023-03-31T01:34:40;21.95;;;15.90;;
57848;SDS011;68645;44.762;21.516;2023-03-31T01:37:36;17.63;;;11.82;;
57848;SDS011;68645;44.762;21.516;2023-03-31T01:42:56;17.17;;;10.85;;
57848;SDS011;68645;44.762;21.516;2023-03-31T01:48:01;14.63;;;8.98;;
57848;SDS011;68645;44.762;21.516;2023-03-31T01:50:34;13.70;;;8.80;;
57848;SDS011;68645;44.762;21.516;2023-03-31T01:53:26;14.48;;;9.48;;
57848;SDS011;68645;44.762;21.516;2023-03-31T01:55:59;12.43;;;7.60;;
57848;SDS011;68645;44.762;21.516;2023-03-31T01:58:36;11.55;;;7.90;;
57848;SDS011;68645;44.762;21.516;2023-03-31T02:01:27;13.05;;;8.52;;
57848;SDS011;68645;44.762;21.516;2023-03-31T02:03:54;13.32;;;9.43;;
57848;SDS011;68645;44.762;21.516;2023-03-31T02:06:23;11.35;;;8.27;;
57848;SDS011;68645;44.762;21.516;2023-03-31T02:08:56;11.73;;;7.90;;
57848;SDS011;68645;44.762;21.516;2023-03-31T02:11:23;10.57;;;7.95;;
57848;SDS011;68645;44.762;21.516;2023-03-31T02:13:50;15.55;;;8.85;;
57848;SDS011;68645;44.762;21.516;2023-03-31T02:16:19;13.98;;;8.75;;
57848;SDS011;68645;44.762;21.516;2023-03-31T02:18:48;11.02;;;8.10;;
57848;SDS011;68645;44.762;21.516;2023-03-31T02:21:17;13.70;;;8.27;;
57848;SDS011;68645;44.762;21.516;2023-03-31T02:23:44;13.13;;;8.70;;
57848;SDS011;68645;44.762;21.516;2023-03-31T02:26:16;12.45;;;8.80;;
57848;SDS011;68645;44.762;21.516;2023-03-31T02:28:43;20.92;;;11.32;;
57848;SDS011;68645;44.762;21.516;2023-03-31T02:33:55;18.80;;;12.45;;
57848;SDS011;68645;44.762;21.516;2023-03-31T02:36:21;14.63;;;11.10;;
57848;SDS011;68645;44.762;21.516;2023-03-31T02:39:09;17.70;;;10.98;;
57848;SDS011;68645;44.762;21.516;2023-03-31T02:41:34;13.60;;;10.30;;
57848;SDS011;68645;44.762;21.516;2023-03-31T02:44:01;16.35;;;11.40;;
57848;SDS011;68645;44.762;21.516;2023-03-31T02:46:27;16.33;;;11.27;;
57848;SDS011;68645;44.762;21.516;2023-03-31T02:48:55;14.23;;;11.23;;
57848;SDS011;68645;44.762;21.516;2023-03-31T02:51:27;13.18;;;9.55;;
57848;SDS011;68645;44.762;21.516;2023-03-31T02:56:34;14.45;;;10.38;;
57848;SDS011;68645;44.762;21.516;2023-03-31T02:59:12;16.73;;;9.93;;
57848;SDS011;68645;44.762;21.516;2023-03-31T03:04:15;14.65;;;10.73;;
57848;SDS011;68645;44.762;21.516;2023-03-31T03:12:21;43.80;;;24.55;;
57848;SDS011;68645;44.762;21.516;2023-03-31T03:17:48;31.35;;;19.42;;
57848;SDS011;68645;44.762;21.516;2023-03-31T03:20:15;24.45;;;16.40;;
57848;SDS011;68645;44.762;21.516;2023-03-31T03:22:43;27.10;;;15.73;;
57848;SDS011;68645;44.762;21.516;2023-03-31T03:25:10;21.25;;;14.02;;
57848;SDS011;68645;44.762;21.516;2023-03-31T03:27:37;15.68;;;11.35;;
57848;SDS011;68645;44.762;21.516;2023-03-31T03:30:04;16.23;;;10.93;;
57848;SDS011;68645;44.762;21.516;2023-03-31T03:32:31;15.98;;;10.48;;
57848;SDS011;68645;44.762;21.516;2023-03-31T03:34:58;16.48;;;10.93;;
57848;SDS011;68645;44.762;21.516;2023-03-31T03:37:24;24.55;;;13.50;;
57848;SDS011;68645;44.762;21.516;2023-03-31T03:39:50;33.10;;;16.70;;
57848;SDS011;68645;44.762;21.516;2023-03-31T03:42:16;38.78;;;19.95;;
57848;SDS011;68645;44.762;21.516;2023-03-31T03:44:42;34.55;;;18.15;;
57848;SDS011;68645;44.762;21.516;2023-03-31T03:47:09;26.85;;;15.07;;
57848;SDS011;68645;44.762;21.516;2023-03-31T03:49:35;16.63;;;11.00;;
57848;SDS011;68645;44.762;21.516;2023-03-31T03:52:01;17.60;;;11.77;;
57848;SDS011;68645;44.762;21.516;2023-03-31T03:54:27;17.67;;;11.75;;
57848;SDS011;68645;44.762;21.516;2023-03-31T03:56:53;18.08;;;12.23;;
57848;SDS011;68645;44.762;21.516;2023-03-31T03:59:19;21.38;;;11.95;;
57848;SDS011;68645;44.762;21.516;2023-03-31T04:01:46;18.65;;;11.57;;
57848;SDS011;68645;44.762;21.516;2023-03-31T04:04:12;23.58;;;13.45;;
57848;SDS011;68645;44.762;21.516;2023-03-31T04:06:38;23.10;;;12.35;;
57848;SDS011;68645;44.762;21.516;2023-03-31T04:09:04;22.30;;;14.32;;
57848;SDS011;68645;44.762;21.516;2023-03-31T04:11:31;26.60;;;18.55;;
57848;SDS011;68645;44.762;21.516;2023-03-31T04:13:57;27.95;;;20.20;;
57848;SDS011;68645;44.762;21.516;2023-03-31T04:16:23;22.23;;;16.88;;
57848;SDS011;68645;44.762;21.516;2023-03-31T04:18:50;23.92;;;17.52;;
57848;SDS011;68645;44.762;21.516;2023-03-31T04:21:17;30.23;;;19.35;;
57848;SDS011;68645;44.762;21.516;2023-03-31T04:23:53;37.92;;;20.77;;
57848;SDS011;68645;44.762;21.516;2023-03-31T04:26:23;48.72;;;25.98;;
57848;SDS011;68645;44.762;21.516;2023-03-31T04:28:55;38.97;;;23.92;;
57848;SDS011;68645;44.762;21.516;2023-03-31T04:31:24;29.90;;;19.02;;
57848;SDS011;68645;44.762;21.516;2023-03-31T04:33:51;26.27;;;17.75;;
57848;SDS011;68645;44.762;21.516;2023-03-31T04:36:17;22.50;;;15.73;;
57848;SDS011;68645;44.762;21.516;2023-03-31T04:38:47;24.00;;;16.50;;
57848;SDS011;68645;44.762;21.516;2023-03-31T04:41:22;22.70;;;15.02;;
57848;SDS011;68645;44.762;21.516;2023-03-31T04:43:48;27.40;;;19.77;;
57848;SDS011;68645;44.762;21.516;2023-03-31T04:46:14;23.65;;;16.15;;
57848;SDS011;68645;44.762;21.516;2023-03-31T04:48:41;24.52;;;15.98;;
57848;SDS011;68645;44.762;21.516;2023-03-31T04:51:07;24.33;;;16.38;;
57848;SDS011;68645;44.762;21.516;2023-03-31T04:53:34;24.33;;;16.13;;
57848;SDS011;68645;44.762;21.516;2023-03-31T04:56:01;25.73;;;17.20;;
57848;SDS011;68645;44.762;21.516;2023-03-31T04:58:28;25.40;;;18.23;;
57848;SDS011;68645;44.762;21.516;2023-03-31T05:00:54;27.55;;;19.58;;
57848;SDS011;68645;44.762;21.516;2023-03-31T05:03:20;28.05;;;21.33;;
57848;SDS011;68645;44.762;21.516;2023-03-31T05:05:46;27.63;;;19.70;;
57848;SDS011;68645;44.762;21.516;2023-03-31T05:08:12;31.38;;;21.75;;
57848;SDS011;68645;44.762;21.516;2023-03-31T05:10:38;31.73;;;21.17;;
57848;SDS011;68645;44.762;21.516;2023-03-31T05:13:04;35.83;;;24.35;;
57848;SDS011;68645;44.762;21.516;2023-03-31T05:15:31;31.63;;;24.42;;
57848;SDS011;68645;44.762;21.516;2023-03-31T05:17:57;32.17;;;22.45;;
57848;SDS011;68645;44.762;21.516;2023-03-31T05:20:23;31.58;;;22.98;;
57848;SDS011;68645;44.762;21.516;2023-03-31T05:22:50;29.38;;;23.02;;
57848;SDS011;68645;44.762;21.516;2023-03-31T05:25:16;28.80;;;22.50;;
57848;SDS011;68645;44.762;21.516;2023-03-31T05:27:45;34.53;;;24.35;;
57848;SDS011;68645;44.762;21.516;2023-03-31T05:30:13;33.42;;;24.92;;
57848;SDS011;68645;44.762;21.516;2023-03-31T05:32:39;33.80;;;24.67;;
57848;SDS011;68645;44.762;21.516;2023-03-31T05:35:05;34.88;;;26.05;;
57848;SDS011;68645;44.762;21.516;2023-03-31T05:37:31;41.00;;;27.95;;
57848;SDS011;68645;44.762;21.516;2023-03-31T05:39:58;47.70;;;32.35;;
57848;SDS011;68645;44.762;21.516;2023-03-31T05:42:24;57.22;;;36.33;;
57848;SDS011;68645;44.762;21.516;2023-03-31T05:44:50;46.67;;;32.38;;
57848;SDS011;68645;44.762;21.516;2023-03-31T05:47:16;48.92;;;31.70;;
57848;SDS011;68645;44.762;21.516;2023-03-31T05:49:43;63.58;;;39.80;;
57848;SDS011;68645;44.762;21.516;2023-03-31T05:52:09;61.30;;;44.85;;
57848;SDS011;68645;44.762;21.516;2023-03-31T05:54:35;73.53;;;51.65;;
57848;SDS011;68645;44.762;21.516;2023-03-31T05:57:02;60.85;;;43.92;;
57848;SDS011;68645;44.762;21.516;2023-03-31T05:59:28;55.20;;;41.60;;
57848;SDS011;68645;44.762;21.516;2023-03-31T06:01:54;51.58;;;38.50;;
57848;SDS011;68645;44.762;21.516;2023-03-31T06:04:20;54.20;;;38.72;;
57848;SDS011;68645;44.762;21.516;2023-03-31T06:06:48;48.13;;;36.00;;
57848;SDS011;68645;44.762;21.516;2023-03-31T06:09:14;49.42;;;35.10;;
57848;SDS011;68645;44.762;21.516;2023-03-31T06:11:41;58.67;;;40.53;;
57848;SDS011;68645;44.762;21.516;2023-03-31T06:14:07;57.67;;;37.70;;
57848;SDS011;68645;44.762;21.516;2023-03-31T06:16:33;47.00;;;31.88;;
57848;SDS011;68645;44.762;21.516;2023-03-31T06:19:00;43.10;;;29.80;;
57848;SDS011;68645;44.762;21.516;2023-03-31T06:21:26;33.63;;;24.85;;
57848;SDS011;68645;44.762;21.516;2023-03-31T06:23:52;26.40;;;20.67;;
57848;SDS011;68645;44.762;21.516;2023-03-31T06:26:20;25.50;;;19.70;;
57848;SDS011;68645;44.762;21.516;2023-03-31T06:28:47;26.17;;;19.95;;
57848;SDS011;68645;44.762;21.516;2023-03-31T06:31:16;26.77;;;20.33;;
57848;SDS011;68645;44.762;21.516;2023-03-31T06:33:43;22.65;;;16.20;;
57848;SDS011;68645;44.762;21.516;2023-03-31T06:36:09;23.27;;;17.15;;
57848;SDS011;68645;44.762;21.516;2023-03-31T06:38:36;24.52;;;18.42;;
57848;SDS011;68645;44.762;21.516;2023-03-31T06:41:03;23.33;;;18.33;;
57848;SDS011;68645;44.762;21.516;2023-03-31T06:43:30;22.42;;;16.90;;
57848;SDS011;68645;44.762;21.516;2023-03-31T06:45:56;22.80;;;17.27;;
57848;SDS011;68645;44.762;21.516;2023-03-31T06:48:23;22.55;;;16.02;;
57848;SDS011;68645;44.762;21.516;2023-03-31T06:50:49;34.53;;;24.52;;
57848;SDS011;68645;44.762;21.516;2023-03-31T06:53:16;34.83;;;27.20;;
57848;SDS011;68645;44.762;21.516;2023-03-31T06:55:42;28.98;;;23.15;;
57848;SDS011;68645;44.762;21.516;2023-03-31T06:58:08;35.00;;;28.48;;
57848;SDS011;68645;44.762;21.516;2023-03-31T07:00:37;59.38;;;48.53;;
57848;SDS011;68645;44.762;21.516;2023-03-31T07:03:03;50.20;;;38.28;;
57848;SDS011;68645;44.762;21.516;2023-03-31T07:05:30;35.03;;;25.80;;
57848;SDS011;68645;44.762;21.516;2023-03-31T07:07:58;30.73;;;23.00;;
57848;SDS011;68645;44.762;21.516;2023-03-31T07:10:26;43.50;;;22.67;;
57848;SDS011;68645;44.762;21.516;2023-03-31T07:12:53;38.28;;;23.05;;
57848;SDS011;68645;44.762;21.516;2023-03-31T07:15:19;32.97;;;19.73;;
57848;SDS011;68645;44.762;21.516;2023-03-31T07:17:45;60.45;;;29.38;;
57848;SDS011;68645;44.762;21.516;2023-03-31T07:20:15;34.50;;;22.65;;
57848;SDS011;68645;44.762;21.516;2023-03-31T07:22:45;33.90;;;22.73;;
57848;SDS011;68645;44.762;21.516;2023-03-31T07:25:13;38.22;;;21.60;;
57848;SDS011;68645;44.762;21.516;2023-03-31T07:27:39;32.85;;;20.52;;
57848;SDS011;68645;44.762;21.516;2023-03-31T07:30:06;39.92;;;26.20;;
57848;SDS011;68645;44.762;21.516;2023-03-31T07:32:33;25.08;;;15.55;;
57848;SDS011;68645;44.762;21.516;2023-03-31T07:35:04;22.17;;;13.98;;
57848;SDS011;68645;44.762;21.516;2023-03-31T07:37:34;26.15;;;19.40;;
57848;SDS011;68645;44.762;21.516;2023-03-31T07:40:00;32.70;;;28.20;;
57848;SDS011;68645;44.762;21.516;2023-03-31T07:42:27;37.05;;;26.52;;
57848;SDS011;68645;44.762;21.516;2023-03-31T07:44:53;19.83;;;15.88;;
57848;SDS011;68645;44.762;21.516;2023-03-31T07:47:19;27.80;;;22.77;;
57848;SDS011;68645;44.762;21.516;2023-03-31T07:49:45;43.17;;;33.05;;
57848;SDS011;68645;44.762;21.516;2023-03-31T07:52:12;31.55;;;26.08;;
57848;SDS011;68645;44.762;21.516;2023-03-31T07:54:38;23.80;;;19.20;;
57848;SDS011;68645;44.762;21.516;2023-03-31T07:57:04;20.95;;;16.90;;
57848;SDS011;68645;44.762;21.516;2023-03-31T07:59:32;25.33;;;19.67;;
57848;SDS011;68645;44.762;21.516;2023-03-31T08:01:58;31.08;;;27.13;;
57848;SDS011;68645;44.762;21.516;2023-03-31T08:04:24;29.38;;;24.60;;
57848;SDS011;68645;44.762;21.516;2023-03-31T08:06:51;27.08;;;22.92;;
57848;SDS011;68645;44.762;21.516;2023-03-31T08:09:17;14.82;;;10.63;;
57848;SDS011;68645;44.762;21.516;2023-03-31T08:11:44;13.00;;;10.10;;
57848;SDS011;68645;44.762;21.516;2023-03-31T08:14:10;19.55;;;14.77;;
57848;SDS011;68645;44.762;21.516;2023-03-31T08:16:36;24.75;;;16.67;;
57848;SDS011;68645;44.762;21.516;2023-03-31T08:19:02;24.55;;;17.98;;
57848;SDS011;68645;44.762;21.516;2023-03-31T08:21:28;24.60;;;16.15;;
57848;SDS011;68645;44.762;21.516;2023-03-31T08:23:55;23.67;;;16.65;;
57848;SDS011;68645;44.762;21.516;2023-03-31T08:26:21;21.23;;;15.23;;
57848;SDS011;68645;44.762;21.516;2023-03-31T08:28:51;20.45;;;15.05;;
57848;SDS011;68645;44.762;21.516;2023-03-31T08:31:21;22.65;;;15.15;;
57848;SDS011;68645;44.762;21.516;2023-03-31T08:33:48;21.07;;;15.00;;
57848;SDS011;68645;44.762;21.516;2023-03-31T08:36:14;19.70;;;15.75;;
57848;SDS011;68645;44.762;21.516;2023-03-31T08:38:41;19.00;;;13.90;;
57848;SDS011;68645;44.762;21.516;2023-03-31T08:43:42;22.65;;;14.63;;
57848;SDS011;68645;44.762;21.516;2023-03-31T08:46:10;20.13;;;14.63;;
57848;SDS011;68645;44.762;21.516;2023-03-31T08:48:38;30.58;;;20.02;;
57848;SDS011;68645;44.762;21.516;2023-03-31T08:53:42;31.15;;;19.15;;
57848;SDS011;68645;44.762;21.516;2023-03-31T08:56:17;38.33;;;25.25;;
57848;SDS011;68645;44.762;21.516;2023-03-31T08:58:44;37.60;;;24.50;;
57848;SDS011;68645;44.762;21.516;2023-03-31T09:06:14;24.10;;;16.85;;
57848;SDS011;68645;44.762;21.516;2023-03-31T09:08:41;25.00;;;17.60;;
57848;SDS011;68645;44.762;21.516;2023-03-31T09:11:10;18.20;;;13.10;;
57848;SDS011;68645;44.762;21.516;2023-03-31T09:18:35;16.38;;;10.75;;
57848;SDS011;68645;44.762;21.516;2023-03-31T09:23:39;17.38;;;10.50;;
57848;SDS011;68645;44.762;21.516;2023-03-31T09:26:11;18.13;;;11.83;;
57848;SDS011;68645;44.762;21.516;2023-03-31T09:28:42;16.83;;;9.50;;
57848;SDS011;68645;44.762;21.516;2023-03-31T09:31:16;14.90;;;8.85;;
57848;SDS011;68645;44.762;21.516;2023-03-31T09:33:46;12.48;;;8.95;;
57848;SDS011;68645;44.762;21.516;2023-03-31T09:36:17;17.63;;;11.40;;
57848;SDS011;68645;44.762;21.516;2023-03-31T09:41:10;12.30;;;8.23;;
57848;SDS011;68645;44.762;21.516;2023-03-31T09:43:36;14.80;;;10.90;;
57848;SDS011;68645;44.762;21.516;2023-03-31T09:46:03;12.75;;;8.48;;
57848;SDS011;68645;44.762;21.516;2023-03-31T09:48:32;17.40;;;11.98;;
57848;SDS011;68645;44.762;21.516;2023-03-31T09:51:02;15.75;;;12.27;;
57848;SDS011;68645;44.762;21.516;2023-03-31T09:56:02;10.60;;;7.40;;
57848;SDS011;68645;44.762;21.516;2023-03-31T09:58:28;11.38;;;7.43;;
57848;SDS011;68645;44.762;21.516;2023-03-31T10:00:56;11.40;;;6.05;;
57848;SDS011;68645;44.762;21.516;2023-03-31T10:03:23;10.02;;;6.30;;
57848;SDS011;68645;44.762;21.516;2023-03-31T10:05:53;9.77;;;5.70;;
57848;SDS011;68645;44.762;21.516;2023-03-31T10:13:13;18.17;;;13.55;;
57848;SDS011;68645;44.762;21.516;2023-03-31T10:15:40;12.82;;;7.45;;
57848;SDS011;68645;44.762;21.516;2023-03-31T10:18:16;12.00;;;9.63;;
57848;SDS011;68645;44.762;21.516;2023-03-31T10:20:44;9.52;;;6.50;;
57848;SDS011;68645;44.762;21.516;2023-03-31T10:23:17;8.77;;;3.63;;
57848;SDS011;68645;44.762;21.516;2023-03-31T10:25:48;10.40;;;7.50;;
57848;SDS011;68645;44.762;21.516;2023-03-31T10:28:16;8.60;;;6.55;;
57848;SDS011;68645;44.762;21.516;2023-03-31T10:30:50;9.27;;;5.32;;
57848;SDS011;68645;44.762;21.516;2023-03-31T10:33:17;11.88;;;6.20;;
57848;SDS011;68645;44.762;21.516;2023-03-31T10:35:46;8.00;;;4.85;;
57848;SDS011;68645;44.762;21.516;2023-03-31T10:38:14;10.43;;;5.40;;
57848;SDS011;68645;44.762;21.516;2023-03-31T10:40:51;8.45;;;4.82;;
57848;SDS011;68645;44.762;21.516;2023-03-31T10:43:28;6.15;;;3.40;;
57848;SDS011;68645;44.762;21.516;2023-03-31T10:45:56;7.82;;;3.30;;
57848;SDS011;68645;44.762;21.516;2023-03-31T10:48:28;10.55;;;7.35;;
57848;SDS011;68645;44.762;21.516;2023-03-31T10:53:22;9.38;;;4.40;;
57848;SDS011;68645;44.762;21.516;2023-03-31T10:59:08;10.43;;;4.30;;
57848;SDS011;68645;44.762;21.516;2023-03-31T11:06:55;6.45;;;3.40;;
57848;SDS011;68645;44.762;21.516;2023-03-31T11:12:22;6.55;;;3.97;;
57848;SDS011;68645;44.762;21.516;2023-03-31T11:20:08;7.28;;;3.75;;
57848;SDS011;68645;44.762;21.516;2023-03-31T11:22:43;5.05;;;3.25;;
57848;SDS011;68645;44.762;21.516;2023-03-31T11:25:22;4.82;;;3.17;;
57848;SDS011;68645;44.762;21.516;2023-03-31T11:31:08;9.55;;;4.80;;
57848;SDS011;68645;44.762;21.516;2023-03-31T11:33:33;6.90;;;3.58;;
57848;SDS011;68645;44.762;21.516;2023-03-31T11:39:02;11.80;;;7.10;;
57848;SDS011;68645;44.762;21.516;2023-03-31T11:41:58;10.40;;;5.78;;
57848;SDS011;68645;44.762;21.516;2023-03-31T11:44:22;13.82;;;6.53;;
57848;SDS011;68645;44.762;21.516;2023-03-31T11:46:51;10.00;;;4.40;;
57848;SDS011;68645;44.762;21.516;2023-03-31T11:49:19;8.23;;;4.45;;
57848;SDS011;68645;44.762;21.516;2023-03-31T11:51:50;10.23;;;4.78;;
57848;SDS011;68645;44.762;21.516;2023-03-31T11:54:31;10.25;;;4.60;;
57848;SDS011;68645;44.762;21.516;2023-03-31T11:57:00;8.40;;;3.75;;
57848;SDS011;68645;44.762;21.516;2023-03-31T11:59:27;8.52;;;4.47;;
57848;SDS011;68645;44.762;21.516;2023-03-31T12:04:44;7.95;;;4.22;;
57848;SDS011;68645;44.762;21.516;2023-03-31T12:07:23;7.65;;;4.68;;
57848;SDS011;68645;44.762;21.516;2023-03-31T12:12:24;8.73;;;4.97;;
57848;SDS011;68645;44.762;21.516;2023-03-31T12:17:28;5.53;;;2.95;;
57848;SDS011;68645;44.762;21.516;2023-03-31T12:19:58;8.65;;;3.70;;
57848;SDS011;68645;44.762;21.516;2023-03-31T12:22:33;7.28;;;3.35;;
57848;SDS011;68645;44.762;21.516;2023-03-31T12:25:02;5.88;;;3.35;;
57848;SDS011;68645;44.762;21.516;2023-03-31T12:27:38;11.65;;;9.27;;
57848;SDS011;68645;44.762;21.516;2023-03-31T12:30:08;6.63;;;4.00;;
57848;SDS011;68645;44.762;21.516;2023-03-31T12:32:37;8.75;;;4.03;;
57848;SDS011;68645;44.762;21.516;2023-03-31T12:35:09;6.70;;;2.63;;
57848;SDS011;68645;44.762;21.516;2023-03-31T12:40:33;6.45;;;2.60;;
57848;SDS011;68645;44.762;21.516;2023-03-31T12:48:32;6.05;;;3.13;;
57848;SDS011;68645;44.762;21.516;2023-03-31T12:51:17;8.73;;;3.55;;
57848;SDS011;68645;44.762;21.516;2023-03-31T12:56:15;6.13;;;2.85;;
57848;SDS011;68645;44.762;21.516;2023-03-31T12:58:42;8.27;;;3.80;;
57848;SDS011;68645;44.762;21.516;2023-03-31T13:01:12;7.78;;;3.17;;
57848;SDS011;68645;44.762;21.516;2023-03-31T13:06:07;5.60;;;2.90;;
57848;SDS011;68645;44.762;21.516;2023-03-31T13:11:16;4.18;;;2.80;;
57848;SDS011;68645;44.762;21.516;2023-03-31T13:16:31;7.68;;;3.58;;
57848;SDS011;68645;44.762;21.516;2023-03-31T13:18:58;6.50;;;3.42;;
57848;SDS011;68645;44.762;21.516;2023-03-31T13:21:24;6.07;;;3.75;;
57848;SDS011;68645;44.762;21.516;2023-03-31T13:23:51;39.70;;;27.73;;
57848;SDS011;68645;44.762;21.516;2023-03-31T13:40:04;9.77;;;5.47;;
57848;SDS011;68645;44.762;21.516;2023-03-31T13:56:07;8.68;;;4.70;;
57848;SDS011;68645;44.762;21.516;2023-03-31T14:01:01;10.10;;;6.38;;
57848;SDS011;68645;44.762;21.516;2023-03-31T14:03:45;27.60;;;18.70;;
57848;SDS011;68645;44.762;21.516;2023-03-31T14:06:19;9.50;;;7.95;;
57848;SDS011;68645;44.762;21.516;2023-03-31T14:08:55;13.02;;;5.43;;
57848;SDS011;68645;44.762;21.516;2023-03-31T14:11:26;8.10;;;3.60;;
57848;SDS011;68645;44.762;21.516;2023-03-31T14:14:00;5.50;;;3.22;;
57848;SDS011;68645;44.762;21.516;2023-03-31T14:16:34;7.40;;;2.67;;
57848;SDS011;68645;44.762;21.516;2023-03-31T14:19:08;5.10;;;2.67;;
57848;SDS011;68645;44.762;21.516;2023-03-31T14:22:12;22.27;;;16.70;;
57848;SDS011;68645;44.762;21.516;2023-03-31T14:24:32;10.75;;;6.22;;
57848;SDS011;68645;44.762;21.516;2023-03-31T14:32:18;5.45;;;3.60;;
57848;SDS011;68645;44.762;21.516;2023-03-31T14:37:34;6.75;;;2.88;;
57848;SDS011;68645;44.762;21.516;2023-03-31T14:40:00;7.32;;;2.95;;
57848;SDS011;68645;44.762;21.516;2023-03-31T14:42:34;5.68;;;2.70;;
57848;SDS011;68645;44.762;21.516;2023-03-31T14:45:03;5.88;;;3.03;;
57848;SDS011;68645;44.762;21.516;2023-03-31T14:47:33;4.18;;;2.90;;
57848;SDS011;68645;44.762;21.516;2023-03-31T14:50:01;8.10;;;2.85;;
57848;SDS011;68645;44.762;21.516;2023-03-31T14:52:28;6.10;;;2.92;;
57848;SDS011;68645;44.762;21.516;2023-03-31T14:54:56;7.22;;;3.00;;
57848;SDS011;68645;44.762;21.516;2023-03-31T14:57:24;6.72;;;3.00;;
57848;SDS011;68645;44.762;21.516;2023-03-31T14:59:52;4.68;;;2.80;;
57848;SDS011;68645;44.762;21.516;2023-03-31T15:02:27;5.43;;;2.70;;
57848;SDS011;68645;44.762;21.516;2023-03-31T15:04:55;7.95;;;3.33;;
57848;SDS011;68645;44.762;21.516;2023-03-31T15:07:22;7.55;;;3.95;;
57848;SDS011;68645;44.762;21.516;2023-03-31T15:09:49;6.82;;;3.25;;
57848;SDS011;68645;44.762;21.516;2023-03-31T15:12:16;7.35;;;3.35;;
57848;SDS011;68645;44.762;21.516;2023-03-31T15:14:45;6.85;;;3.53;;
57848;SDS011;68645;44.762;21.516;2023-03-31T15:17:21;6.60;;;3.30;;
57848;SDS011;68645;44.762;21.516;2023-03-31T15:19:54;6.95;;;3.00;;
57848;SDS011;68645;44.762;21.516;2023-03-31T15:22:22;7.82;;;3.38;;
57848;SDS011;68645;44.762;21.516;2023-03-31T15:24:48;6.60;;;3.47;;
57848;SDS011;68645;44.762;21.516;2023-03-31T15:27:31;8.68;;;3.88;;
57848;SDS011;68645;44.762;21.516;2023-03-31T15:29:59;7.30;;;4.72;;
57848;SDS011;68645;44.762;21.516;2023-03-31T15:32:36;13.30;;;7.28;;
57848;SDS011;68645;44.762;21.516;2023-03-31T15:35:03;10.45;;;5.43;;
57848;SDS011;68645;44.762;21.516;2023-03-31T15:37:39;10.60;;;5.75;;
57848;SDS011;68645;44.762;21.516;2023-03-31T15:40:25;7.00;;;4.20;;
57848;SDS011;68645;44.762;21.516;2023-03-31T15:42:53;8.57;;;4.75;;
57848;SDS011;68645;44.762;21.516;2023-03-31T15:47:56;16.15;;;10.88;;
57848;SDS011;68645;44.762;21.516;2023-03-31T15:50:26;12.20;;;8.20;;
57848;SDS011;68645;44.762;21.516;2023-03-31T15:52:54;11.13;;;6.10;;
57848;SDS011;68645;44.762;21.516;2023-03-31T15:57:50;10.75;;;6.38;;
57848;SDS011;68645;44.762;21.516;2023-03-31T16:03:03;10.90;;;6.53;;
57848;SDS011;68645;44.762;21.516;2023-03-31T16:05:40;20.75;;;12.70;;
57848;SDS011;68645;44.762;21.516;2023-03-31T16:08:10;14.55;;;10.32;;
57848;SDS011;68645;44.762;21.516;2023-03-31T16:10:38;13.23;;;8.95;;
57848;SDS011;68645;44.762;21.516;2023-03-31T16:13:08;10.75;;;7.07;;
57848;SDS011;68645;44.762;21.516;2023-03-31T16:15:36;13.13;;;7.82;;
57848;SDS011;68645;44.762;21.516;2023-03-31T16:18:07;15.52;;;8.13;;
57848;SDS011;68645;44.762;21.516;2023-03-31T16:20:36;13.65;;;7.47;;
57848;SDS011;68645;44.762;21.516;2023-03-31T16:26:02;16.35;;;9.02;;
57848;SDS011;68645;44.762;21.516;2023-03-31T16:28:30;21.58;;;12.55;;
57848;SDS011;68645;44.762;21.516;2023-03-31T16:30:58;19.17;;;13.07;;
57848;SDS011;68645;44.762;21.516;2023-03-31T16:33:26;17.08;;;10.82;;
57848;SDS011;68645;44.762;21.516;2023-03-31T16:35:54;16.38;;;9.85;;
57848;SDS011;68645;44.762;21.516;2023-03-31T16:38:23;21.55;;;12.30;;
57848;SDS011;68645;44.762;21.516;2023-03-31T16:40:50;29.58;;;19.48;;
57848;SDS011;68645;44.762;21.516;2023-03-31T16:43:23;27.70;;;21.45;;
57848;SDS011;68645;44.762;21.516;2023-03-31T16:45:54;33.40;;;21.03;;
57848;SDS011;68645;44.762;21.516;2023-03-31T16:48:23;29.77;;;19.13;;
57848;SDS011;68645;44.762;21.516;2023-03-31T16:50:50;40.25;;;20.55;;
57848;SDS011;68645;44.762;21.516;2023-03-31T16:53:19;37.45;;;20.88;;
57848;SDS011;68645;44.762;21.516;2023-03-31T16:55:46;16.63;;;11.82;;
57848;SDS011;68645;44.762;21.516;2023-03-31T16:58:12;21.67;;;15.02;;
57848;SDS011;68645;44.762;21.516;2023-03-31T17:00:38;38.25;;;24.20;;
57848;SDS011;68645;44.762;21.516;2023-03-31T17:03:05;33.13;;;24.55;;
57848;SDS011;68645;44.762;21.516;2023-03-31T17:05:42;37.45;;;24.10;;
57848;SDS011;68645;44.762;21.516;2023-03-31T17:08:09;44.25;;;29.30;;
57848;SDS011;68645;44.762;21.516;2023-03-31T17:10:36;59.42;;;38.22;;
57848;SDS011;68645;44.762;21.516;2023-03-31T17:13:03;40.33;;;30.17;;